Time;durP1;ratioP1;P1;durP2;ratioP2;P2;SDS_P1;SDS_P2;PMS_P1;PMS_P2;Temp;Humidity;BMP_temperature;BMP_pressure;BME280_temperature;BME280_humidity;BME280_pressure;Samples;Min_cycle;Max_cycle;Signal;HPM_P1;HPM_P2
2022/05/24 00:01:46;;;;;;;2.27;2.17;;;;;;;19.26;67.31;99114.44;5135551;27;20244;-66
2022/05/24 00:04:13;;;;;;;2.50;1.90;;;;;;;19.25;67.38;99118.19;5139654;27;20209;-66
2022/05/24 00:06:39;;;;;;;2.90;2.10;;;;;;;19.32;66.90;99126.88;5140826;27;20593;-66
2022/05/24 00:09:07;;;;;;;2.83;1.73;;;;;;;19.41;66.55;99117.22;5140232;27;20188;-66
2022/05/24 00:11:34;;;;;;;2.17;1.93;;;;;;;19.51;66.35;99117.25;5139749;27;20690;-66
2022/05/24 00:14:01;;;;;;;2.63;2.37;;;;;;;19.61;66.04;99122.69;5139875;27;20575;-66
2022/05/24 00:16:28;;;;;;;4.17;2.40;;;;;;;19.56;65.58;99120.78;5139892;27;20192;-67
2022/05/24 00:18:55;;;;;;;3.07;1.90;;;;;;;19.43;66.21;99110.50;5140427;27;20253;-66
2022/05/24 00:21:21;;;;;;;2.33;2.10;;;;;;;19.48;66.05;99123.19;5139872;27;20228;-67
2022/05/24 00:23:48;;;;;;;3.80;2.13;;;;;;;19.43;66.24;99131.22;5139763;27;20201;-67
2022/05/24 00:26:22;;;;;;;2.10;1.90;;;;;;;19.47;65.81;99121.53;5139554;27;20190;-67
2022/05/24 00:28:48;;;;;;;4.27;2.00;;;;;;;19.47;66.45;99121.53;5140666;27;20188;-67
2022/05/24 00:31:15;;;;;;;4.83;2.00;;;;;;;19.43;66.35;99121.25;5140008;27;20254;-67
2022/05/24 00:33:42;;;;;;;2.20;1.80;;;;;;;19.38;66.20;99112.34;5139336;27;20220;-67
2022/05/24 00:36:08;;;;;;;2.80;2.00;;;;;;;19.44;66.06;99132.88;5139396;27;20216;-67
2022/05/24 00:38:37;;;;;;;4.43;2.10;;;;;;;19.34;66.16;99130.91;5139652;27;20190;-67
2022/05/24 00:41:24;;;;;;;1.97;1.87;;;;;;;19.01;67.94;99116.94;5139314;27;20198;-67
2022/05/24 00:43:54;;;;;;;2.17;1.93;;;;;;;19.17;67.21;99124.88;5139936;27;20198;-66
2022/05/24 00:46:24;;;;;;;2.10;2.00;;;;;;;18.78;68.39;99117.34;5139629;27;20189;-67
2022/05/24 00:48:57;;;;;;;2.50;1.80;;;;;;;18.65;69.27;99113.19;5139424;27;20226;-66
2022/05/24 00:51:31;;;;;;;3.90;2.03;;;;;;;18.89;68.70;99124.38;5140084;27;20578;-66
2022/05/24 00:53:58;;;;;;;4.30;2.00;;;;;;;19.03;67.82;99125.59;5140371;27;20317;-66
2022/05/24 00:56:40;;;;;;;2.13;1.97;;;;;;;18.91;68.18;99122.25;5140010;27;20194;-66
2022/05/24 00:59:17;;;;;;;3.77;2.00;;;;;;;19.03;68.01;99114.81;5139164;27;20651;-66
2022/05/24 01:01:47;;;;;;;3.27;2.33;;;;;;;18.99;67.79;99109.13;5140312;27;20216;-66
2022/05/24 01:04:17;;;;;;;1.80;1.70;;;;;;;19.09;67.47;99103.81;5139941;27;20284;-66
2022/05/24 01:06:44;;;;;;;4.70;1.90;;;;;;;19.22;67.05;99108.75;5140036;27;20292;-68
2022/05/24 01:09:17;;;;;;;6.80;2.37;;;;;;;19.08;67.63;99109.47;5140240;27;20204;-67
2022/05/24 01:11:49;;;;;;;2.93;1.80;;;;;;;19.14;67.31;99109.22;5139072;27;20735;-67
2022/05/24 01:14:19;;;;;;;2.90;2.23;;;;;;;19.24;66.58;99113.91;5136016;27;20258;-68
2022/05/24 01:16:47;;;;;;;3.37;1.67;;;;;;;18.94;67.09;99103.72;5136005;27;20193;-67
2022/05/24 01:19:23;;;;;;;2.30;2.20;;;;;;;18.87;68.09;99110.41;5137101;27;20653;-67
2022/05/24 01:21:50;;;;;;;1.73;1.63;;;;;;;18.99;67.59;99114.50;5136145;27;20182;-68
2022/05/24 01:24:25;;;;;;;2.10;1.90;;;;;;;19.09;67.14;99113.75;5135947;27;20192;-66
2022/05/24 01:26:55;;;;;;;3.07;2.10;;;;;;;18.80;68.13;99115.19;5135607;27;20193;-66
2022/05/24 01:29:26;;;;;;;3.37;2.33;;;;;;;18.83;67.96;99122.75;5136206;27;20248;-66
2022/05/24 01:37:23;;;;;;;12.33;2.60;;;;;;;19.10;67.29;99123.47;5135833;27;20178;-66
2022/05/24 01:39:54;;;;;;;5.90;2.80;;;;;;;19.05;67.12;99118.03;5135681;27;20196;-67
2022/05/24 01:42:23;;;;;;;9.33;2.97;;;;;;;19.03;67.59;99122.88;5135324;27;20671;-67
2022/05/24 01:44:55;;;;;;;10.40;3.70;;;;;;;19.10;67.02;99120.75;5135254;27;20195;-67
2022/05/24 01:47:24;;;;;;;9.97;3.50;;;;;;;19.16;67.15;99123.22;5136391;27;20186;-66
2022/05/24 01:49:54;;;;;;;12.87;3.20;;;;;;;19.19;67.15;99113.84;5135427;27;20261;-66
2022/05/24 01:52:25;;;;;;;7.33;3.47;;;;;;;19.19;67.11;99119.22;5135017;27;20258;-66
2022/05/24 01:54:56;;;;;;;3.53;2.90;;;;;;;19.21;66.96;99111.69;5136092;27;20255;-66
2022/05/24 01:57:30;;;;;;;6.77;3.10;;;;;;;19.17;67.33;99110.59;5135962;27;20626;-66
2022/05/24 01:59:59;;;;;;;6.50;3.13;;;;;;;19.21;66.69;99117.06;5135027;27;20190;-66
2022/05/24 02:02:28;;;;;;;3.73;2.93;;;;;;;19.13;67.16;99112.16;5134938;27;20227;-67
2022/05/24 02:04:55;;;;;;;9.93;3.73;;;;;;;19.09;67.30;99119.16;5134873;27;20201;-66
2022/05/24 02:07:23;;;;;;;7.50;3.53;;;;;;;19.07;67.62;99124.78;5134775;27;20569;-66
2022/05/24 02:09:52;;;;;;;4.70;3.10;;;;;;;19.09;67.08;99125.34;5134802;27;20228;-66
2022/05/24 02:12:23;;;;;;;6.27;3.47;;;;;;;19.03;67.20;99126.38;5134667;27;20658;-66
2022/05/24 02:14:56;;;;;;;7.47;2.87;;;;;;;19.08;67.17;99139.06;5135814;27;20261;-66
2022/05/24 02:17:25;;;;;;;3.50;3.20;;;;;;;19.09;67.15;99136.13;5134722;27;20187;-66
2022/05/24 02:19:56;;;;;;;4.63;2.93;;;;;;;19.11;67.61;99133.97;5134906;27;20199;-66
2022/05/24 02:22:26;;;;;;;7.07;2.73;;;;;;;19.23;66.79;99131.06;5134852;27;20182;-66
2022/05/24 02:24:58;;;;;;;8.30;3.07;;;;;;;19.16;66.09;99131.31;5134184;27;20244;-66
2022/05/24 02:27:26;;;;;;;9.97;2.77;;;;;;;18.89;67.20;99127.91;5134914;27;20263;-67
2022/05/24 02:29:55;;;;;;;3.03;2.47;;;;;;;19.03;66.84;99141.75;5134669;27;20620;-67
2022/05/24 02:32:22;;;;;;;5.20;2.60;;;;;;;19.09;66.51;99140.69;5135192;27;20190;-66
2022/05/24 02:34:49;;;;;;;2.53;2.33;;;;;;;19.21;66.60;99144.81;5135271;27;20298;-66
2022/05/24 02:37:16;;;;;;;5.03;2.40;;;;;;;19.05;66.15;99139.59;5134443;27;20194;-66
2022/05/24 02:42:26;;;;;;;3.30;1.97;;;;;;;19.25;65.21;99158.59;5134213;27;20228;-66
2022/05/24 02:44:54;;;;;;;2.90;2.20;;;;;;;19.32;64.88;99156.50;5134676;27;20194;-67
2022/05/24 02:47:21;;;;;;;5.90;2.67;;;;;;;19.38;64.54;99150.06;5134319;27;20577;-67
2022/05/24 02:49:48;;;;;;;2.83;2.40;;;;;;;19.41;64.22;99152.25;5134280;27;20223;-67
2022/05/24 02:52:16;;;;;;;4.57;2.30;;;;;;;19.44;63.99;99159.81;5134217;27;20197;-67
2022/05/24 02:54:43;;;;;;;5.23;2.40;;;;;;;19.46;64.20;99157.66;5133795;27;20244;-67
2022/05/24 02:57:10;;;;;;;12.43;3.63;;;;;;;19.48;63.82;99163.59;5133780;27;20207;-67
2022/05/24 02:59:36;;;;;;;8.33;2.63;;;;;;;19.43;64.41;99161.69;5134135;27;20254;-67
2022/05/24 03:02:06;;;;;;;3.93;2.50;;;;;;;19.19;64.93;99156.94;5133667;27;20188;-67
2022/05/24 03:04:34;;;;;;;4.67;2.57;;;;;;;19.32;64.71;99156.50;5133709;27;20229;-67
2022/05/24 03:09:45;;;;;;;2.60;2.40;;;;;;;19.07;65.21;99164.38;5134005;27;20231;-67
2022/05/24 03:14:57;;;;;;;7.13;2.83;;;;;;;19.01;65.55;99174.28;5133804;27;20209;-69
2022/05/24 03:17:26;;;;;;;4.43;3.07;;;;;;;19.15;64.62;99166.59;5133748;27;20198;-67
2022/05/24 03:19:52;;;;;;;3.60;2.53;;;;;;;19.28;64.30;99171.56;5133705;27;20194;-67
2022/05/24 03:22:19;;;;;;;3.07;2.73;;;;;;;19.36;64.06;99169.16;5133322;27;20188;-67
2022/05/24 03:24:46;;;;;;;2.90;2.60;;;;;;;19.45;63.91;99173.00;5133321;27;20707;-66
2022/05/24 03:27:13;;;;;;;3.43;3.07;;;;;;;19.56;63.29;99176.56;5133295;27;20202;-67
2022/05/24 03:29:40;;;;;;;4.53;3.17;;;;;;;19.53;63.35;99185.97;5133223;27;20191;-68
2022/05/24 03:32:09;;;;;;;8.47;3.23;;;;;;;19.62;63.30;99178.22;5133933;27;20247;-67
2022/05/24 03:34:38;;;;;;;4.33;3.00;;;;;;;19.72;62.72;99168.28;5133865;27;20567;-67
2022/05/24 03:37:06;;;;;;;4.43;3.43;;;;;;;19.76;62.68;99173.94;5132429;27;20261;-67
2022/05/24 03:39:33;;;;;;;4.03;3.00;;;;;;;19.86;62.34;99174.00;5133074;27;20732;-67
2022/05/24 03:42:00;;;;;;;5.10;3.00;;;;;;;20.00;62.49;99175.97;5132985;27;20190;-66
2022/05/24 03:44:26;;;;;;;6.00;2.90;;;;;;;20.08;62.13;99182.72;5132999;27;20219;-66
2022/05/24 03:46:54;;;;;;;9.50;3.20;;;;;;;20.04;61.83;99176.22;5133888;27;20249;-66
2022/05/24 03:49:21;;;;;;;3.93;3.10;;;;;;;19.81;62.29;99166.72;5132765;27;20583;-66
2022/05/24 03:51:49;;;;;;;3.80;2.80;;;;;;;19.44;63.55;99170.56;5132912;27;20194;-66
2022/05/24 03:54:16;;;;;;;5.40;3.00;;;;;;;19.53;63.67;99177.88;5133203;27;20247;-67
2022/05/24 03:57:59;;;;;;;3.33;2.80;;;;;;;19.52;64.25;99172.78;5132913;27;20723;-67
2022/05/24 03:59:31;;;;;;;5.73;2.77;;;;;;;19.67;63.86;99180.94;5132830;27;20193;-68
2022/05/24 04:01:57;;;;;;;3.10;2.80;;;;;;;19.78;63.69;99177.22;5133182;27;20194;-68
2022/05/24 04:04:24;;;;;;;8.07;3.13;;;;;;;19.82;63.24;99184.53;5133424;27;20189;-67
2022/05/24 04:06:52;;;;;;;7.43;2.77;;;;;;;19.96;63.66;99184.81;5133900;27;20193;-67
2022/05/24 04:09:19;;;;;;;5.57;2.37;;;;;;;20.32;63.13;99184.72;5133190;27;20194;-67
2022/05/24 04:11:45;;;;;;;4.60;2.67;;;;;;;21.06;61.17;99184.28;5132702;27;20227;-66
2022/05/24 04:14:12;;;;;;;5.13;2.60;;;;;;;21.62;58.10;99192.03;5132630;27;20253;-66
2022/05/24 04:16:39;;;;;;;4.97;3.00;;;;;;;21.92;56.21;99193.88;5132687;27;20541;-67
2022/05/24 04:19:06;;;;;;;10.17;2.97;;;;;;;21.95;55.68;99210.34;5132660;27;20671;-67
2022/05/24 04:21:35;;;;;;;5.30;2.50;;;;;;;21.91;55.17;99213.84;5133832;27;20194;-67
2022/05/24 04:24:03;;;;;;;6.57;2.77;;;;;;;21.92;55.25;99210.88;5132612;27;20190;-67
2022/05/24 04:26:30;;;;;;;8.40;3.10;;;;;;;21.92;54.77;99216.28;5132592;27;20671;-67
2022/05/24 04:28:57;;;;;;;6.60;3.00;;;;;;;21.89;55.36;99210.63;5132541;27;20285;-67
2022/05/24 04:31:24;;;;;;;5.57;2.60;;;;;;;21.75;55.25;99213.09;5132580;27;20194;-67
2022/05/24 04:33:51;;;;;;;4.00;2.77;;;;;;;21.60;55.55;99205.00;5132840;27;20194;-67
2022/05/24 04:36:18;;;;;;;3.67;2.57;;;;;;;21.73;55.27;99200.94;5132421;27;20763;-67
2022/05/24 04:38:44;;;;;;;3.17;2.23;;;;;;;21.91;55.13;99203.03;5132828;27;20197;-67
2022/05/24 04:43:57;;;;;;;5.37;2.33;;;;;;;22.73;52.79;99195.88;5132759;28;20197;-67
2022/05/24 04:46:23;;;;;;;2.87;2.67;;;;;;;23.51;49.18;99212.81;5132313;27;20270;-67
2022/05/24 04:48:50;;;;;;;3.03;2.77;;;;;;;24.24;47.71;99212.28;5134732;27;20234;-67
2022/05/24 04:51:17;;;;;;;2.73;2.40;;;;;;;24.98;45.38;99206.88;5137149;27;20237;-66
2022/05/24 04:53:44;;;;;;;2.53;2.20;;;;;;;25.68;43.60;99213.00;5136573;27;20218;-66
2022/05/24 04:56:10;;;;;;;6.83;2.13;;;;;;;26.39;41.67;99215.97;5136427;27;20220;-67
2022/05/24 04:58:38;;;;;;;3.73;2.17;;;;;;;27.31;39.25;99216.31;5136046;27;20190;-67
2022/05/24 05:01:05;;;;;;;5.27;2.57;;;;;;;27.75;37.93;99221.66;5136328;27;20195;-66
2022/05/24 05:03:32;;;;;;;9.27;2.50;;;;;;;28.78;36.33;99218.09;5136512;27;20186;-67
2022/05/24 05:05:58;;;;;;;7.57;2.40;;;;;;;29.42;34.28;99217.13;5135934;27;20257;-67
2022/05/24 05:08:25;;;;;;;5.17;2.47;;;;;;;29.58;33.97;99217.41;5135924;27;20190;-66
2022/05/24 05:10:53;;;;;;;4.73;2.57;;;;;;;28.99;34.70;99225.38;5136215;27;20190;-66
2022/05/24 05:13:19;;;;;;;3.50;1.97;;;;;;;28.42;36.23;99225.81;5135817;27;20678;-67
2022/05/24 05:15:47;;;;;;;5.23;2.47;;;;;;;28.30;36.22;99220.91;5135535;27;20771;-67
2022/05/24 05:18:16;;;;;;;4.03;2.30;;;;;;;28.43;36.08;99228.19;5135720;27;20194;-64
2022/05/24 05:20:43;;;;;;;2.00;1.90;;;;;;;28.35;36.05;99222.69;5135929;27;20247;-63
2022/05/24 05:23:12;;;;;;;4.27;2.40;;;;;;;28.16;36.87;99224.88;5135943;27;20241;-63
2022/05/24 05:25:41;;;;;;;4.50;2.17;;;;;;;28.02;37.15;99224.22;5136390;27;20202;-63
2022/05/24 05:28:08;;;;;;;4.40;1.80;;;;;;;27.78;37.17;99215.56;5136013;27;20194;-63
2022/05/24 05:33:21;;;;;;;5.87;2.33;;;;;;;27.71;37.77;99198.84;5126091;27;20193;-64
2022/05/24 05:35:47;;;;;;;2.97;2.07;;;;;;;28.10;36.76;99204.31;5117239;27;20655;-62
2022/05/24 05:38:15;;;;;;;6.90;2.30;;;;;;;28.83;34.87;99198.81;5135364;27;20222;-63
2022/05/24 05:40:42;;;;;;;5.97;2.80;;;;;;;29.61;33.09;99212.13;5132102;27;21029;-63
2022/05/24 05:43:09;;;;;;;3.60;1.73;;;;;;;29.17;33.72;99209.75;5135214;27;20723;-63
2022/05/24 05:45:36;;;;;;;4.90;2.30;;;;;;;27.98;35.48;99215.81;5122956;27;20206;-64
2022/05/24 05:48:03;;;;;;;4.17;2.00;;;;;;;27.96;36.40;99223.56;5123394;27;20198;-63
2022/05/24 05:50:31;;;;;;;4.77;2.43;;;;;;;27.69;36.41;99218.25;5124069;27;20293;-64
2022/05/24 05:52:57;;;;;;;4.03;2.50;;;;;;;27.97;36.23;99218.91;5122491;27;20195;-65
2022/05/24 05:55:25;;;;;;;4.43;2.60;;;;;;;27.95;36.76;99221.94;5133040;27;20285;-66
2022/05/24 05:57:52;;;;;;;3.70;2.00;;;;;;;27.90;37.31;99219.38;5134041;27;20243;-63
2022/05/24 06:00:19;;;;;;;3.17;2.63;;;;;;;27.83;36.67;99223.66;5133554;27;20194;-62
2022/05/24 06:02:46;;;;;;;2.30;1.93;;;;;;;27.41;36.90;99227.75;5112667;27;20671;-62
2022/05/24 06:05:14;;;;;;;4.47;2.97;;;;;;;27.63;37.48;99230.44;5114553;28;20226;-61
2022/05/24 06:07:42;;;;;;;4.27;2.40;;;;;;;28.57;35.91;99236.25;5132950;27;20216;-65
2022/05/24 06:10:11;;;;;;;2.13;1.70;;;;;;;29.17;34.54;99237.94;5152714;27;20193;-66
2022/05/24 06:12:38;;;;;;;2.53;2.03;;;;;;;29.86;32.40;99241.34;5155451;27;20201;-65
2022/05/24 06:15:05;;;;;;;3.67;1.87;;;;;;;29.96;32.74;99240.19;5155141;27;20246;-65
2022/05/24 06:17:32;;;;;;;3.43;2.73;;;;;;;29.78;33.21;99242.16;5154628;27;20269;-65
2022/05/24 06:20:00;;;;;;;13.33;2.57;;;;;;;29.74;32.83;99234.94;5135480;27;20212;-66
2022/05/24 06:22:27;;;;;;;5.47;2.50;;;;;;;30.30;32.62;99238.09;5134747;27;20238;-66
2022/05/24 06:24:55;;;;;;;4.20;2.10;;;;;;;30.05;31.80;99225.28;5134105;27;20209;-65
2022/05/24 06:27:23;;;;;;;3.93;2.30;;;;;;;29.41;33.49;99231.94;5125205;27;20194;-67
2022/05/24 06:29:50;;;;;;;3.40;1.97;;;;;;;29.39;33.87;99234.19;5114043;28;20190;-67
2022/05/24 06:32:16;;;;;;;3.53;2.10;;;;;;;29.43;34.06;99246.09;5114012;28;20267;-65
2022/05/24 06:34:43;;;;;;;3.13;2.20;;;;;;;29.44;33.96;99244.16;5113655;28;20195;-64
2022/05/24 06:37:10;;;;;;;2.47;2.23;;;;;;;29.51;32.55;99242.53;5114717;28;20215;-64
2022/05/24 06:39:37;;;;;;;4.50;2.30;;;;;;;29.03;34.44;99231.03;5113546;28;20613;-64
2022/05/24 06:42:05;;;;;;;4.03;1.90;;;;;;;29.18;33.33;99236.81;5113967;28;20191;-64
2022/05/24 06:44:32;;;;;;;5.63;2.27;;;;;;;29.40;33.08;99235.81;5113431;28;20771;-64
2022/05/24 06:46:59;;;;;;;2.20;2.00;;;;;;;29.35;33.28;99237.91;5121770;27;20748;-64
2022/05/24 06:49:25;;;;;;;5.50;2.27;;;;;;;27.53;36.49;99244.38;5133892;27;20222;-63
2022/05/24 06:51:52;;;;;;;8.60;2.90;;;;;;;27.08;36.65;99240.03;5148388;27;20216;-63
2022/05/24 06:54:19;;;;;;;4.77;2.27;;;;;;;26.93;37.37;99237.66;5150573;27;20221;-64
2022/05/24 06:56:46;;;;;;;6.40;2.30;;;;;;;26.61;38.17;99228.84;5154300;27;20751;-61
2022/05/24 07:04:48;;;;;;;4.37;2.00;;;;;;;25.56;40.44;99228.22;5153819;27;20202;-65
2022/05/24 07:07:15;;;;;;;5.77;2.47;;;;;;;25.49;40.54;99233.25;5153251;27;20189;-67
2022/05/24 07:09:42;;;;;;;5.73;2.00;;;;;;;25.44;40.91;99230.63;5153929;27;20185;-66
2022/05/24 07:12:10;;;;;;;6.20;2.50;;;;;;;25.44;40.76;99228.69;5132022;27;20727;-66
2022/05/24 07:14:38;;;;;;;3.27;1.77;;;;;;;25.73;41.21;99223.81;5133536;27;20194;-66
2022/05/24 07:17:05;;;;;;;2.10;1.97;;;;;;;26.08;40.41;99228.59;5133698;27;20274;-66
2022/05/24 07:19:32;;;;;;;6.70;2.37;;;;;;;26.41;39.38;99234.72;5133681;27;20254;-66
2022/05/24 07:21:59;;;;;;;5.60;1.80;;;;;;;26.95;38.19;99234.63;5133359;27;20190;-66
2022/05/24 07:24:27;;;;;;;7.50;2.33;;;;;;;27.49;37.30;99239.84;5121400;27;20198;-66
2022/05/24 07:26:54;;;;;;;4.50;2.00;;;;;;;28.16;35.70;99233.09;5111657;28;20194;-67
2022/05/24 07:29:21;;;;;;;2.60;2.40;;;;;;;28.39;35.00;99231.88;5112075;28;20190;-67
2022/05/24 07:31:49;;;;;;;3.80;2.40;;;;;;;28.39;34.73;99237.34;5123328;27;20194;-67
2022/05/24 07:34:15;;;;;;;5.50;2.60;;;;;;;28.47;34.52;99233.84;5133322;27;20239;-66
2022/05/24 07:36:42;;;;;;;4.93;2.33;;;;;;;28.39;34.54;99224.50;5133035;27;20728;-67
2022/05/24 07:39:09;;;;;;;2.00;1.80;;;;;;;28.33;34.53;99222.19;5133365;27;20200;-67
2022/05/24 07:47:06;;;;;;;11.67;2.57;;;;;;;28.15;35.82;99215.09;5112591;28;20190;-67
2022/05/24 07:49:33;;;;;;;6.60;2.20;;;;;;;28.37;35.32;99213.06;5112636;28;20276;-67
2022/05/24 07:52:00;;;;;;;2.90;2.10;;;;;;;28.62;34.82;99216.97;5123867;27;20194;-67
2022/05/24 07:54:27;;;;;;;4.87;2.30;;;;;;;27.85;36.47;99215.97;5112813;28;20194;-67
2022/05/24 07:56:53;;;;;;;5.23;2.50;;;;;;;28.16;35.62;99224.88;5113133;28;20214;-67
2022/05/24 07:59:20;;;;;;;2.83;2.27;;;;;;;28.33;35.58;99225.75;5112902;28;20190;-68
2022/05/24 08:01:47;;;;;;;3.33;1.73;;;;;;;28.67;34.76;99222.31;5112868;28;20256;-67
2022/05/24 08:04:15;;;;;;;4.43;2.20;;;;;;;29.09;34.09;99218.78;5112500;28;20283;-67
2022/05/24 08:06:41;;;;;;;8.07;2.80;;;;;;;29.08;34.29;99231.66;5112497;28;20617;-67
2022/05/24 08:09:08;;;;;;;5.00;2.27;;;;;;;29.02;33.69;99218.47;5111960;28;20194;-67
2022/05/24 08:11:35;;;;;;;4.47;2.10;;;;;;;29.00;33.65;99226.19;5132616;28;20266;-67
2022/05/24 08:14:02;;;;;;;4.83;2.20;;;;;;;28.44;34.23;99224.38;5132409;27;20251;-67
2022/05/24 08:16:30;;;;;;;6.43;2.20;;;;;;;27.17;36.88;99218.25;5132520;27;20229;-67
2022/05/24 08:18:58;;;;;;;3.87;2.40;;;;;;;27.06;36.96;99220.41;5132295;27;20215;-66
2022/05/24 08:21:26;;;;;;;8.03;2.63;;;;;;;27.20;36.97;99214.94;5132789;27;20201;-66
2022/05/24 08:23:53;;;;;;;4.07;2.20;;;;;;;27.38;36.25;99206.53;5135978;27;20197;-66
2022/05/24 08:26:20;;;;;;;8.20;1.80;;;;;;;27.63;35.96;99200.41;5136586;27;20194;-68
2022/05/24 08:28:47;;;;;;;8.70;2.30;;;;;;;27.50;36.40;99195.03;5135571;27;20194;-67
2022/05/24 08:31:15;;;;;;;4.10;2.50;;;;;;;27.66;36.24;99198.97;5136024;27;20218;-67
2022/05/24 08:33:43;;;;;;;6.90;2.60;;;;;;;27.83;35.96;99179.97;5135952;27;20190;-67
2022/05/24 08:36:10;;;;;;;2.47;2.07;;;;;;;27.59;36.64;99157.69;5136304;27;20702;-67
2022/05/24 08:38:39;;;;;;;4.20;2.40;;;;;;;27.74;35.74;99160.00;5137665;27;20273;-67
2022/05/24 08:41:15;;;;;;;6.67;2.77;;;;;;;27.94;35.97;99156.72;5124040;27;20308;-67
2022/05/24 08:49:32;;;;;;;3.63;2.57;;;;;;;27.74;35.44;99181.84;5116211;28;20771;-65
2022/05/24 08:52:02;;;;;;;5.60;2.10;;;;;;;27.71;35.86;99163.34;5126527;27;20671;-63
2022/05/24 08:54:37;;;;;;;4.20;2.30;;;;;;;27.48;36.11;99172.75;5130455;27;20250;-64
2022/05/24 08:57:08;;;;;;;3.40;2.77;;;;;;;26.33;38.67;99172.81;5136213;27;20706;-64
2022/05/24 08:59:38;;;;;;;5.67;2.80;;;;;;;26.69;38.22;99182.59;5136088;27;20216;-63
2022/05/24 09:02:07;;;;;;;3.90;2.20;;;;;;;27.14;37.67;99183.41;5135781;27;20194;-64
2022/05/24 09:04:34;;;;;;;3.60;2.53;;;;;;;27.47;37.40;99184.75;5136027;27;20186;-63
2022/05/24 09:07:07;;;;;;;4.40;2.40;;;;;;;27.68;36.61;99183.09;5136179;27;20251;-63
2022/05/24 09:09:45;;;;;;;3.27;2.57;;;;;;;27.83;36.24;99179.97;5136718;27;20186;-64
2022/05/24 09:12:27;;;;;;;3.00;2.80;;;;;;;27.91;36.27;99173.72;5135842;27;20218;-64
2022/05/24 09:18:24;;;;;;;4.57;2.23;;;;;;;28.06;36.33;99189.69;5135737;27;20213;-64
2022/05/24 09:20:51;;;;;;;3.90;2.53;;;;;;;28.20;35.47;99179.44;5136108;27;20618;-64
2022/05/24 09:23:26;;;;;;;5.30;2.20;;;;;;;28.45;34.77;99192.34;5135953;27;20243;-64
2022/05/24 09:25:58;;;;;;;3.60;2.70;;;;;;;28.46;34.97;99181.09;5135581;27;20231;-65
2022/05/24 09:28:49;;;;;;;3.60;2.20;;;;;;;28.58;35.02;99175.03;5135920;27;20190;-64
2022/05/24 09:31:36;;;;;;;3.47;2.10;;;;;;;28.77;34.35;99178.22;5120491;27;20190;-65
2022/05/24 09:34:07;;;;;;;6.43;3.00;;;;;;;28.50;35.45;99178.56;5134893;27;20274;-67
2022/05/24 09:36:37;;;;;;;2.30;2.20;;;;;;;27.42;36.80;99184.88;5135496;27;20217;-65
2022/05/24 09:39:07;;;;;;;5.03;2.27;;;;;;;27.65;36.57;99179.06;5135400;27;20647;-66
2022/05/24 09:41:35;;;;;;;7.37;2.27;;;;;;;28.10;36.32;99169.59;5119093;27;20195;-64
2022/05/24 09:44:05;;;;;;;10.97;2.50;;;;;;;28.31;35.74;99161.63;5115097;28;20247;-65
2022/05/24 09:46:36;;;;;;;4.20;2.30;;;;;;;28.48;35.73;99154.28;5114864;28;20194;-65
2022/05/24 09:49:23;;;;;;;3.20;2.17;;;;;;;28.03;36.82;99154.81;5118094;27;20274;-66
2022/05/24 09:51:54;;;;;;;4.40;2.17;;;;;;;28.16;36.17;99156.59;5132882;27;20587;-66
2022/05/24 09:54:24;;;;;;;3.53;2.13;;;;;;;28.33;36.37;99156.63;5114721;28;20277;-67
2022/05/24 09:57:06;;;;;;;2.60;1.90;;;;;;;28.19;36.44;99155.97;5114575;27;20214;-67
2022/05/24 09:59:36;;;;;;;4.33;2.03;;;;;;;27.97;37.49;99159.59;5114529;27;20197;-66
2022/05/24 10:02:23;;;;;;;5.87;2.37;;;;;;;27.86;37.82;99152.03;5114023;28;20259;-65
2022/05/24 10:04:50;;;;;;;2.70;1.70;;;;;;;27.94;36.78;99151.25;5114268;28;20255;-65
2022/05/24 10:07:24;;;;;;;3.03;2.67;;;;;;;28.38;35.75;99140.09;5114607;28;20247;-66
2022/05/24 10:09:58;;;;;;;5.60;2.30;;;;;;;28.37;35.33;99135.72;5114451;28;20205;-66
2022/05/24 10:12:41;;;;;;;3.73;1.90;;;;;;;28.34;35.22;99139.13;5118761;27;20186;-65
2022/05/24 10:15:18;;;;;;;3.67;2.17;;;;;;;28.43;35.29;99129.81;5117996;27;20190;-66
2022/05/24 10:18:01;;;;;;;5.03;2.30;;;;;;;28.57;34.66;99140.59;5113950;28;20213;-65
2022/05/24 10:20:39;;;;;;;2.63;1.90;;;;;;;28.73;34.62;99149.91;5121180;27;20207;-65
2022/05/24 10:23:13;;;;;;;7.90;2.40;;;;;;;28.63;34.71;99166.66;5135140;27;20538;-64
2022/05/24 10:25:48;;;;;;;4.43;2.50;;;;;;;28.59;35.18;99160.22;5134032;27;20207;-66
2022/05/24 10:28:29;;;;;;;2.53;2.33;;;;;;;28.53;35.51;99158.75;5132819;27;20242;-65
2022/05/24 10:31:04;;;;;;;6.83;2.40;;;;;;;28.45;34.98;99143.97;5133660;27;20253;-66
2022/05/24 10:39:26;;;;;;;7.63;2.50;;;;;;;28.02;35.56;99134.09;5134712;27;20193;-66
2022/05/24 10:42:02;;;;;;;4.83;1.93;;;;;;;28.28;35.87;99135.75;5115195;27;20182;-66
2022/05/24 10:44:37;;;;;;;3.93;2.23;;;;;;;28.40;35.17;99118.69;5113571;28;20190;-66
2022/05/24 10:47:08;;;;;;;5.97;2.80;;;;;;;27.77;36.78;99110.22;5112997;28;20190;-67
2022/05/24 10:49:45;;;;;;;3.00;2.50;;;;;;;27.95;35.92;99120.09;5111772;28;20618;-67
2022/05/24 10:52:21;;;;;;;2.80;2.30;;;;;;;28.14;35.10;99115.16;5124153;27;20186;-66
2022/05/24 10:54:54;;;;;;;5.27;2.33;;;;;;;27.57;36.87;99116.25;5114076;28;20576;-65
2022/05/24 10:57:25;;;;;;;5.57;2.00;;;;;;;27.70;36.59;99109.88;5122348;27;20202;-60
2022/05/24 11:00:03;;;;;;;3.67;2.50;;;;;;;27.86;36.65;99103.72;5112863;28;20206;-60
2022/05/24 11:02:36;;;;;;;4.63;2.47;;;;;;;27.72;36.92;99091.28;5112952;28;20627;-60
2022/05/24 11:05:10;;;;;;;3.07;2.70;;;;;;;27.14;38.10;99082.50;5113511;28;20310;-61
2022/05/24 11:07:38;;;;;;;8.97;2.43;;;;;;;27.29;37.71;99076.66;5113069;28;20235;-61
2022/05/24 11:10:13;;;;;;;5.23;2.80;;;;;;;27.16;38.24;99089.25;5113001;28;20198;-61
2022/05/24 11:12:46;;;;;;;6.43;2.77;;;;;;;27.27;37.82;99087.09;5122913;27;20185;-61
2022/05/24 11:15:21;;;;;;;4.27;2.50;;;;;;;27.47;37.40;99075.59;5133892;27;20181;-61
2022/05/24 11:17:48;;;;;;;4.97;2.90;;;;;;;27.48;37.73;99080.75;5113203;28;20259;-61
2022/05/24 11:20:22;;;;;;;6.00;2.83;;;;;;;27.62;37.16;99072.44;5115601;27;20548;-61
2022/05/24 11:23:03;;;;;;;9.30;3.40;;;;;;;27.56;37.49;99055.41;5154486;27;20186;-60
2022/05/24 11:25:36;;;;;;;8.73;3.60;;;;;;;27.39;38.13;99057.28;5113251;28;20192;-60
2022/05/24 11:28:18;;;;;;;5.27;2.70;;;;;;;27.87;37.37;99047.16;5112682;28;20704;-61
2022/05/24 11:30:48;;;;;;;3.43;2.33;;;;;;;27.96;37.10;99042.50;5113062;28;20259;-61
2022/05/24 11:33:18;;;;;;;4.47;2.67;;;;;;;27.59;36.97;99032.94;5113101;27;20194;-61
2022/05/24 11:35:50;;;;;;;4.40;2.60;;;;;;;27.87;36.86;99045.25;5113231;28;20190;-60
2022/05/24 11:38:20;;;;;;;4.43;2.33;;;;;;;28.04;36.94;99041.69;5112577;28;20210;-59
2022/05/24 11:41:01;;;;;;;8.23;2.67;;;;;;;27.59;37.95;99037.59;5122452;27;20565;-60
2022/05/24 11:43:59;;;;;;;4.63;2.67;;;;;;;27.46;37.71;99055.72;5113154;28;20193;-60
2022/05/24 11:46:44;;;;;;;3.37;2.40;;;;;;;27.39;37.36;99049.09;5112420;28;20218;-60
2022/05/24 11:49:32;;;;;;;2.80;2.60;;;;;;;27.63;37.09;99054.94;5112245;28;20256;-60
2022/05/24 11:51:59;;;;;;;4.00;2.53;;;;;;;27.89;37.34;99067.56;5123151;27;20243;-60
2022/05/24 11:54:56;;;;;;;2.70;2.50;;;;;;;27.91;37.94;99064.50;5112611;28;20275;-60
2022/05/24 11:57:40;;;;;;;6.07;2.63;;;;;;;28.17;37.39;99059.88;5107034;28;20219;-60
2022/05/24 12:00:09;;;;;;;2.90;2.60;;;;;;;27.94;38.52;99058.41;5112261;28;20265;-60
2022/05/24 12:08:37;;;;;;;8.60;2.90;;;;;;;28.12;38.60;99079.97;5112484;28;20236;-62
2022/05/24 12:11:16;;;;;;;5.60;2.63;;;;;;;28.27;38.92;99076.75;5112147;28;20239;-62
2022/05/24 12:13:58;;;;;;;6.77;3.17;;;;;;;28.51;39.36;99087.22;5119632;28;20189;-62
2022/05/24 12:17:11;;;;;;;5.73;3.10;;;;;;;28.68;39.39;99092.66;5133415;27;20182;-61
2022/05/24 12:19:49;;;;;;;3.13;2.80;;;;;;;28.51;39.24;99084.50;5127482;27;20221;-61
2022/05/24 12:22:17;;;;;;;8.67;2.90;;;;;;;28.42;40.44;99083.69;5132115;27;20262;-61
2022/05/24 12:24:48;;;;;;;3.90;2.80;;;;;;;28.57;39.91;99088.66;5133690;27;20186;-61
2022/05/24 12:27:37;;;;;;;4.43;2.47;;;;;;;28.62;39.83;99086.56;5132713;27;20198;-60
2022/05/24 12:30:32;;;;;;;4.27;3.87;;;;;;;28.51;40.71;99082.53;5124530;27;20643;-60
2022/05/24 12:33:12;;;;;;;3.83;2.90;;;;;;;28.63;40.83;99084.66;5130072;27;20230;-59
2022/05/24 12:35:50;;;;;;;4.97;3.33;;;;;;;28.67;41.09;99074.66;5133058;27;20194;-61
2022/05/24 12:38:19;;;;;;;4.47;3.50;;;;;;;28.31;42.46;99079.66;5132886;27;20324;-61
2022/05/24 12:40:46;;;;;;;9.43;3.13;;;;;;;28.39;43.11;99081.56;5122953;27;20191;-62